Time;durP1;ratioP1;P1;durP2;ratioP2;P2;SDS_P1;SDS_P2;PMS_P1;PMS_P2;Temp;Humidity;BMP_temperature;BMP_pressure;BME280_temperature;BME280_humidity;BME280_pressure;Samples;Min_cycle;Max_cycle;Signal;HPM_P1;HPM_P2
2022/08/15 00:02:53;;;;;;;1999.90;999.90;;;;;;;21.89;56.31;98299.34;9999261;23;20458;-75
2022/08/15 00:07:02;;;;;;;1999.90;999.90;;;;;;;21.82;56.61;98302.53;10003794;23;20026;-75
2022/08/15 00:11:11;;;;;;;1999.90;999.90;;;;;;;21.80;57.10;98301.78;10028178;23;20027;-75
2022/08/15 00:15:20;;;;;;;1999.90;999.90;;;;;;;21.77;57.23;98310.78;10022874;23;20531;-75
2022/08/15 00:19:34;;;;;;;1999.90;999.90;;;;;;;21.76;57.60;98311.72;10005939;23;20022;-75
2022/08/15 00:23:40;;;;;;;1999.90;999.90;;;;;;;21.70;58.15;98301.56;10028778;23;20109;-75
2022/08/15 00:27:42;;;;;;;1999.90;999.90;;;;;;;21.68;58.21;98306.94;10028643;23;20337;-75
2022/08/15 00:31:55;;;;;;;1999.90;999.90;;;;;;;21.68;58.78;98311.38;9998279;23;20034;-75
2022/08/15 00:35:57;;;;;;;1999.90;999.90;;;;;;;21.65;59.15;98314.22;10028043;23;20449;-75
2022/08/15 00:40:19;;;;;;;1999.90;999.90;;;;;;;21.64;59.53;98320.47;10026698;23;21426;-75
2022/08/15 00:44:40;;;;;;;1999.90;999.90;;;;;;;21.64;59.76;98328.41;10004095;23;20398;-75
2022/08/15 00:49:03;;;;;;;1999.90;999.90;;;;;;;21.63;60.24;98335.47;10025406;23;20525;-75
2022/08/15 00:53:12;;;;;;;1999.90;999.90;;;;;;;21.58;60.67;98342.03;10027056;23;20034;-74
2022/08/15 00:57:18;;;;;;;1999.90;999.90;;;;;;;21.50;61.41;98344.28;10027049;23;20033;-74
2022/08/15 01:01:41;;;;;;;1999.90;999.90;;;;;;;21.34;64.53;98357.66;10021490;23;20031;-75
2022/08/15 01:05:46;;;;;;;1999.90;999.90;;;;;;;21.03;66.96;98371.97;10027229;23;20030;-76
2022/08/15 01:09:52;;;;;;;1999.90;999.90;;;;;;;20.77;69.39;98357.75;10026838;23;20018;-75
2022/08/15 01:13:56;;;;;;;1999.90;999.90;;;;;;;20.54;71.56;98358.31;10002890;23;20102;-72
2022/08/15 01:18:06;;;;;;;1999.90;999.90;;;;;;;20.35;73.46;98354.16;10027682;23;20154;-72
2022/08/15 01:23:01;;;;;;;;;;;;;;;20.08;75.40;98354.00;10005407;23;20101;-74
2022/08/15 01:27:06;;;;;;;1999.90;999.90;;;;;;;19.91;77.30;98351.50;9994738;23;20431;-74
2022/08/15 01:31:15;;;;;;;1999.90;999.90;;;;;;;19.86;78.50;98358.84;10033089;23;20031;-73
2022/08/15 01:35:17;;;;;;;1999.90;999.90;;;;;;;19.74;79.42;98349.88;10025845;23;20027;-73
2022/08/15 01:39:19;;;;;;;1999.90;999.90;;;;;;;19.69;80.46;98361.63;10025500;23;20057;-74
2022/08/15 01:43:26;;;;;;;1999.90;999.90;;;;;;;19.65;81.16;98371.50;10026606;23;20027;-74
2022/08/15 01:47:36;;;;;;;1999.90;999.90;;;;;;;19.57;80.95;98360.56;10020040;23;20058;-75
2022/08/15 01:51:42;;;;;;;1999.90;999.90;;;;;;;19.49;81.38;98362.72;10024633;23;20106;-72
2022/08/15 01:55:59;;;;;;;1999.90;999.90;;;;;;;19.43;81.22;98355.19;10026586;23;20026;-73
2022/08/15 02:00:06;;;;;;;1999.90;999.90;;;;;;;19.32;81.60;98343.47;10001609;23;20023;-73
2022/08/15 02:04:22;;;;;;;1999.90;999.90;;;;;;;19.29;82.24;98335.75;10030242;23;20105;-73
2022/08/15 02:08:26;;;;;;;1999.90;999.90;;;;;;;19.20;82.70;98346.78;10006404;23;20023;-73
2022/08/15 02:12:40;;;;;;;1999.90;999.90;;;;;;;19.16;83.66;98347.91;10047043;23;20034;-74
2022/08/15 02:17:03;;;;;;;1999.90;999.90;;;;;;;19.04;83.56;98351.25;9997983;23;20037;-75
2022/08/15 02:21:07;;;;;;;1999.90;999.90;;;;;;;18.98;84.32;98359.44;10004368;23;20447;-74
2022/08/15 02:25:12;;;;;;;1999.90;999.90;;;;;;;19.02;84.55;98360.97;10028689;23;20018;-75
2022/08/15 02:29:26;;;;;;;1999.90;999.90;;;;;;;19.10;85.65;98369.31;10043741;23;20022;-75
2022/08/15 02:33:28;;;;;;;1999.90;999.90;;;;;;;19.06;85.92;98367.78;10021400;23;20042;-75
2022/08/15 02:37:30;;;;;;;1999.90;999.90;;;;;;;19.04;85.81;98361.75;10028815;23;20026;-75
2022/08/15 02:41:44;;;;;;;1999.90;999.90;;;;;;;19.00;85.85;98363.69;10031757;23;20026;-75
2022/08/15 02:45:47;;;;;;;1999.90;999.90;;;;;;;19.01;85.97;98369.78;10039932;23;20054;-74
2022/08/15 02:50:12;;;;;;;1999.90;999.90;;;;;;;19.01;86.48;98372.44;10009341;23;20567;-74
2022/08/15 02:54:16;;;;;;;1999.90;999.90;;;;;;;19.00;86.56;98370.72;10005423;23;20058;-75
2022/08/15 02:58:38;;;;;;;1999.90;999.90;;;;;;;18.94;86.60;98366.66;10030979;23;20033;-75
2022/08/15 03:02:54;;;;;;;1999.90;999.90;;;;;;;18.90;86.75;98362.50;9999058;23;20031;-74
2022/08/15 03:06:56;;;;;;;1999.90;999.90;;;;;;;18.90;86.59;98361.66;10042477;23;20026;-75
2022/08/15 03:10:59;;;;;;;1999.90;999.90;;;;;;;18.92;86.88;98360.63;9975933;23;20485;-75
2022/08/15 03:15:05;;;;;;;1999.90;999.90;;;;;;;18.89;86.97;98352.91;10036189;23;20034;-74
2022/08/15 03:19:08;;;;;;;1999.90;999.90;;;;;;;18.89;86.73;98352.91;10023914;23;20554;-75
2022/08/15 03:23:11;;;;;;;1999.90;999.90;;;;;;;18.84;86.93;98349.66;10024764;23;20688;-74
2022/08/15 03:27:13;;;;;;;1999.90;999.90;;;;;;;18.83;86.87;98345.34;10016723;23;20033;-74
2022/08/15 03:31:14;;;;;;;1999.90;999.90;;;;;;;18.87;87.55;98346.91;10019349;23;20045;-73
2022/08/15 03:35:20;;;;;;;1999.90;999.90;;;;;;;18.88;87.00;98342.50;10040248;23;20043;-73
2022/08/15 03:39:24;;;;;;;1999.90;999.90;;;;;;;18.89;87.23;98333.66;10025706;23;20030;-73
2022/08/15 03:43:29;;;;;;;1999.90;999.90;;;;;;;18.86;86.99;98334.69;10025312;23;20019;-73
2022/08/15 03:47:40;;;;;;;1999.90;999.90;;;;;;;18.85;86.72;98329.47;10020108;23;20027;-73
2022/08/15 03:51:42;;;;;;;1999.90;999.90;;;;;;;18.84;87.02;98312.84;10024914;23;20106;-73
2022/08/15 03:55:44;;;;;;;1999.90;999.90;;;;;;;18.83;87.35;98316.41;10026131;23;20031;-74
2022/08/15 03:59:56;;;;;;;1999.90;999.90;;;;;;;18.81;87.53;98320.91;9999760;23;20054;-73
2022/08/15 04:03:58;;;;;;;1999.90;999.90;;;;;;;18.77;87.29;98319.38;9994975;23;20080;-73
2022/08/15 04:07:59;;;;;;;;;;;;;;;18.76;87.70;98319.47;10000122;23;20019;-72
2022/08/15 04:12:01;;;;;;;1999.90;999.90;;;;;;;18.73;88.11;98322.28;10026024;23;20299;-73
2022/08/15 04:16:04;;;;;;;1999.90;999.90;;;;;;;18.70;88.50;98311.00;10021036;23;20042;-73
2022/08/15 04:20:30;;;;;;;1999.90;999.90;;;;;;;18.69;88.61;98309.31;10004787;23;20054;-73
2022/08/15 04:24:33;;;;;;;1999.90;999.90;;;;;;;18.67;88.27;98307.66;10027865;23;20037;-73
2022/08/15 04:28:34;;;;;;;1999.90;999.90;;;;;;;18.63;87.93;98301.72;10027881;23;20359;-73
2022/08/15 04:33:24;;;;;;;1999.90;999.90;;;;;;;18.66;88.50;98309.44;10022513;23;20030;-74
2022/08/15 04:37:47;;;;;;;1999.90;999.90;;;;;;;18.65;88.59;98318.25;10028066;23;20026;-73
2022/08/15 04:41:49;;;;;;;1999.90;999.90;;;;;;;18.57;88.72;98317.81;10028330;23;20486;-73
2022/08/15 04:45:51;;;;;;;1999.90;999.90;;;;;;;18.60;89.39;98329.94;10027751;23;20030;-73
2022/08/15 04:49:54;;;;;;;1999.90;999.90;;;;;;;18.63;89.34;98333.28;10017961;23;20023;-73
2022/08/15 04:53:56;;;;;;;1999.90;999.90;;;;;;;18.62;89.35;98343.84;10002324;23;20034;-73
2022/08/15 04:57:58;;;;;;;1999.90;999.90;;;;;;;18.56;89.60;98339.78;10043824;23;20061;-73
2022/08/15 05:02:00;;;;;;;1999.90;999.90;;;;;;;18.51;90.14;98336.56;10022799;23;20026;-74
2022/08/15 05:06:22;;;;;;;1999.90;999.90;;;;;;;18.43;90.45;98339.56;10001806;23;20027;-74
2022/08/15 05:10:32;;;;;;;1999.90;999.90;;;;;;;18.38;90.83;98344.25;10042610;23;20041;-74
2022/08/15 05:14:34;;;;;;;1999.90;999.90;;;;;;;18.33;91.28;98341.00;10026208;23;20335;-74
2022/08/15 05:18:41;;;;;;;1999.90;999.90;;;;;;;18.31;91.82;98340.25;10024103;23;20037;-74
2022/08/15 05:23:10;;;;;;;1999.90;999.90;;;;;;;18.33;92.11;98341.00;10026175;23;20027;-74
2022/08/15 05:27:13;;;;;;;1999.90;999.90;;;;;;;18.32;92.74;98335.84;10027217;23;20023;-74
2022/08/15 05:31:20;;;;;;;1999.90;999.90;;;;;;;18.36;92.65;98340.84;9998154;23;20106;-74
2022/08/15 05:35:22;;;;;;;1999.90;999.90;;;;;;;18.37;92.80;98334.66;10023325;23;20081;-73
2022/08/15 05:39:27;;;;;;;1999.90;999.90;;;;;;;18.39;93.15;98332.78;10027857;23;20019;-73
2022/08/15 05:43:54;;;;;;;;;;;;;;;18.41;93.43;98328.28;10027020;23;20752;-74
2022/08/15 05:48:31;;;;;;;1999.90;999.90;;;;;;;18.50;93.35;98331.38;10021622;23;20411;-74
2022/08/15 05:53:27;;;;;;;1999.90;999.90;;;;;;;18.56;92.33;98326.63;10010227;23;20070;-74
2022/08/15 05:57:40;;;;;;;1999.90;999.90;;;;;;;18.62;92.10;98326.28;10008231;23;20117;-74
2022/08/15 06:01:51;;;;;;;1999.90;999.90;;;;;;;18.63;91.66;98327.16;10019911;23;20035;-74
2022/08/15 06:06:15;;;;;;;1999.90;999.90;;;;;;;18.70;90.79;98320.66;10022728;23;20110;-74
2022/08/15 06:10:36;;;;;;;1999.90;999.90;;;;;;;18.77;90.45;98323.81;10039762;23;20109;-74
2022/08/15 06:14:42;;;;;;;1999.90;999.90;;;;;;;18.85;90.92;98326.84;10025083;23;20520;-74
2022/08/15 06:18:47;;;;;;;1999.90;999.90;;;;;;;18.92;91.33;98325.59;10019743;23;20027;-74
2022/08/15 06:23:05;;;;;;;1999.90;999.90;;;;;;;19.02;91.12;98324.13;10024053;23;20106;-74
2022/08/15 06:27:35;;;;;;;1999.90;999.90;;;;;;;19.06;89.98;98320.41;10025866;23;20022;-74
2022/08/15 06:32:01;;;;;;;1999.90;999.90;;;;;;;19.14;90.36;98335.75;10042017;23;20062;-73
2022/08/15 06:36:16;;;;;;;1999.90;999.90;;;;;;;19.20;90.16;98336.25;10022924;23;20407;-73
2022/08/15 06:40:33;;;;;;;1999.90;999.90;;;;;;;19.24;90.41;98332.53;10047958;23;20058;-74
2022/08/15 06:44:35;;;;;;;1999.90;999.90;;;;;;;19.26;89.98;98335.94;10041560;23;20069;-74
2022/08/15 06:48:39;;;;;;;;;;;;;;;19.33;90.31;98342.53;10020794;23;20075;-74
2022/08/15 06:53:11;;;;;;;1999.90;999.90;;;;;;;19.28;89.44;98341.09;10023649;23;19925;-74
2022/08/15 06:57:37;;;;;;;1999.90;999.90;;;;;;;19.33;90.59;98345.16;10025471;23;20415;-74
2022/08/15 07:01:45;;;;;;;1999.90;999.90;;;;;;;19.45;90.62;98338.38;10020309;23;20438;-73
2022/08/15 07:06:12;;;;;;;1999.90;999.90;;;;;;;19.51;89.72;98339.78;10023686;23;20093;-74
2022/08/15 07:10:31;;;;;;;1999.90;999.90;;;;;;;19.53;89.19;98332.66;10040435;23;20023;-74
2022/08/15 07:14:56;;;;;;;1999.90;999.90;;;;;;;19.51;88.38;98334.53;10047690;23;20334;-74
2022/08/15 07:19:00;;;;;;;1999.90;999.90;;;;;;;19.56;87.96;98327.22;10020687;23;20023;-74
2022/08/15 07:23:23;;;;;;;1999.90;999.90;;;;;;;19.63;87.99;98338.28;10023276;23;20033;-74
2022/08/15 07:27:30;;;;;;;1999.90;999.90;;;;;;;19.54;86.96;98335.22;10025886;23;20420;-75
2022/08/15 07:31:34;;;;;;;1999.90;999.90;;;;;;;19.53;86.88;98332.66;10018506;23;20065;-75
2022/08/15 07:36:14;;;;;;;1999.90;999.90;;;;;;;19.60;86.66;98340.16;10022235;23;20105;-75
2022/08/15 07:40:38;;;;;;;1999.90;999.90;;;;;;;19.57;86.50;98337.72;10023176;23;20039;-75
2022/08/15 07:44:50;;;;;;;1999.90;999.90;;;;;;;19.57;86.80;98353.50;10025360;23;20081;-75
2022/08/15 07:49:12;;;;;;;1999.90;999.90;;;;;;;19.52;87.25;98350.22;10020799;23;20027;-75
2022/08/15 07:53:21;;;;;;;1999.90;999.90;;;;;;;19.60;88.19;98353.31;10025047;23;20105;-74
2022/08/15 07:57:26;;;;;;;1999.90;999.90;;;;;;;19.71;88.21;98351.84;10052815;23;20612;-75
2022/08/15 08:01:54;;;;;;;1999.90;999.90;;;;;;;19.72;86.97;98348.25;10027515;23;20023;-75
2022/08/15 08:06:41;;;;;;;1999.90;999.90;;;;;;;19.78;86.42;98351.41;10028675;23;20034;-75
2022/08/15 08:11:07;;;;;;;1999.90;999.90;;;;;;;19.86;86.28;98362.34;9981489;23;20375;-75
2022/08/15 08:15:13;;;;;;;1999.90;999.90;;;;;;;20.00;86.10;98361.53;10025469;23;20689;-76
2022/08/15 08:20:03;;;;;;;1999.90;999.90;;;;;;;20.14;85.71;98363.34;10027651;23;20053;-75
2022/08/15 08:24:26;;;;;;;1999.90;999.90;;;;;;;20.26;85.69;98364.38;10022451;23;20031;-77
2022/08/15 08:29:06;;;;;;;1999.90;999.90;;;;;;;20.31;83.98;98365.81;10051810;23;20027;-75
2022/08/15 08:33:25;;;;;;;1999.90;999.90;;;;;;;20.39;84.05;98370.63;10023839;23;20383;-75
2022/08/15 08:38:05;;;;;;;1999.90;999.90;;;;;;;20.55;83.76;98378.47;9979465;23;20409;-75
2022/08/15 08:42:44;;;;;;;1999.90;999.90;;;;;;;20.78;83.34;98388.47;10026808;23;20030;-75
2022/08/15 08:47:26;;;;;;;1999.90;999.90;;;;;;;21.04;81.74;98385.06;10000262;23;20375;-76
2022/08/15 08:51:44;;;;;;;1999.90;999.90;;;;;;;21.32;80.68;98394.72;9998756;23;20027;-75
2022/08/15 08:55:50;;;;;;;1999.90;999.90;;;;;;;21.48;79.43;98396.38;10001822;23;20027;-76
2022/08/15 09:00:15;;;;;;;1999.90;999.90;;;;;;;21.48;77.72;98399.88;10027364;23;20397;-76
2022/08/15 09:04:23;;;;;;;1999.90;999.90;;;;;;;21.57;77.35;98407.22;10025142;23;20038;-74
2022/08/15 09:08:36;;;;;;;1999.90;999.90;;;;;;;21.75;77.13;98410.47;10002597;23;20019;-74
2022/08/15 09:17:13;;;;;;;1999.90;999.90;;;;;;;21.67;75.32;98413.59;10022123;23;20069;-74
2022/08/15 09:21:33;;;;;;;1999.90;999.90;;;;;;;21.64;76.51;98412.94;10023578;23;20057;-74
2022/08/15 09:25:49;;;;;;;1999.90;999.90;;;;;;;21.73;77.28;98412.34;10040122;23;20031;-74
2022/08/15 09:29:57;;;;;;;1999.90;999.90;;;;;;;22.00;76.11;98401.75;10027046;23;20478;-74
2022/08/15 09:34:21;;;;;;;1999.90;999.90;;;;;;;22.35;74.80;98409.13;10020600;23;20446;-76
2022/08/15 09:38:42;;;;;;;1999.90;999.90;;;;;;;22.08;72.21;98409.19;9999426;23;20026;-76
2022/08/15 09:43:18;;;;;;;1999.90;999.90;;;;;;;21.90;73.28;98400.63;10024415;23;20054;-76
2022/08/15 09:47:34;;;;;;;1999.90;999.90;;;;;;;21.68;75.77;98399.41;10021183;23;20027;-75
2022/08/15 09:52:14;;;;;;;1999.90;999.90;;;;;;;21.71;74.21;98401.00;10003300;23;20022;-75
2022/08/15 09:56:37;;;;;;;1999.90;999.90;;;;;;;22.72;73.41;98400.34;10009600;23;20034;-76
2022/08/15 10:00:58;;;;;;;1999.90;999.90;;;;;;;23.62;67.95;98385.97;10000064;23;20029;-76
2022/08/15 10:05:23;;;;;;;1999.90;999.90;;;;;;;24.22;64.37;98379.66;10000034;23;20033;-76
2022/08/15 10:09:27;;;;;;;1999.90;999.90;;;;;;;24.07;62.58;98373.75;10025269;23;20093;-76
2022/08/15 10:13:45;;;;;;;1999.90;999.90;;;;;;;24.13;62.88;98367.13;10016757;23;20027;-76
2022/08/15 10:17:47;;;;;;;1999.90;999.90;;;;;;;24.25;61.97;98363.53;10020659;23;20077;-76
2022/08/15 10:22:21;;;;;;;1999.90;999.90;;;;;;;24.14;62.39;98363.50;9999315;23;20864;-76
2022/08/15 10:26:31;;;;;;;1999.90;999.90;;;;;;;23.72;63.50;98381.69;9999739;23;20113;-76
2022/08/15 10:31:05;;;;;;;1999.90;999.90;;;;;;;23.31;67.35;98371.44;9995712;23;20015;-74
2022/08/15 10:35:21;;;;;;;1999.90;999.90;;;;;;;22.80;71.84;98378.63;10024468;23;20046;-73
2022/08/15 10:40:06;;;;;;;1999.90;999.90;;;;;;;23.06;74.63;98374.16;10025686;23;20023;-74
2022/08/15 10:44:46;;;;;;;1999.90;999.90;;;;;;;23.53;75.85;98381.34;9999974;23;20334;-75
2022/08/15 10:49:02;;;;;;;1999.90;999.90;;;;;;;24.17;74.54;98370.38;9997177;23;20145;-76
2022/08/15 10:53:18;;;;;;;1999.90;999.90;;;;;;;24.80;73.06;98361.94;9999757;23;20030;-75
2022/08/15 10:57:22;;;;;;;1999.90;999.90;;;;;;;24.85;69.87;98354.44;10040955;23;20038;-76
2022/08/15 11:01:33;;;;;;;1999.90;999.90;;;;;;;24.61;70.21;98354.56;10019203;23;20038;-75
2022/08/15 11:05:41;;;;;;;1999.90;999.90;;;;;;;24.50;69.42;98343.94;10024228;23;20136;-75
2022/08/15 11:09:58;;;;;;;1999.90;999.90;;;;;;;24.56;69.33;98339.94;10024384;23;20019;-76
2022/08/15 11:14:08;;;;;;;1999.90;999.90;;;;;;;24.38;70.04;98350.19;10000836;23;20560;-76
2022/08/15 11:18:36;;;;;;;1999.90;999.90;;;;;;;23.98;70.66;98350.56;9994611;23;20086;-76
2022/08/15 11:22:50;;;;;;;1999.90;999.90;;;;;;;23.97;70.27;98340.91;9999581;23;20113;-74
2022/08/15 11:27:12;;;;;;;1999.90;999.90;;;;;;;24.61;70.26;98338.66;10000574;23;20026;-74
2022/08/15 11:31:24;;;;;;;1999.90;999.90;;;;;;;25.04;67.41;98332.59;10017693;23;20059;-74
2022/08/15 11:35:38;;;;;;;1999.90;999.90;;;;;;;25.35;61.07;98323.00;10021799;23;20022;-74
2022/08/15 11:39:47;;;;;;;1999.90;999.90;;;;;;;25.72;57.65;98310.19;10019974;23;20027;-74
2022/08/15 11:43:51;;;;;;;1999.90;999.90;;;;;;;26.03;53.48;98310.22;9995000;23;20023;-74
2022/08/15 11:47:55;;;;;;;1999.90;999.90;;;;;;;26.38;54.45;98302.75;10024631;23;20038;-74
2022/08/15 11:52:09;;;;;;;1999.90;999.90;;;;;;;26.87;54.74;98289.63;10024971;23;20015;-76
2022/08/15 11:56:45;;;;;;;1999.90;999.90;;;;;;;26.98;53.21;98287.72;9998813;23;20069;-76
2022/08/15 12:00:58;;;;;;;1999.90;999.90;;;;;;;26.76;54.13;98302.09;10019992;23;20070;-76
2022/08/15 12:05:16;;;;;;;1999.90;999.90;;;;;;;27.10;53.35;98288.44;9976725;23;20026;-77
2022/08/15 12:09:37;;;;;;;1999.90;999.90;;;;;;;27.56;52.70;98282.47;9998983;23;20105;-75
2022/08/15 12:14:04;;;;;;;1999.90;999.90;;;;;;;27.83;51.46;98284.47;10000204;23;20137;-76
2022/08/15 12:18:24;;;;;;;1999.90;999.90;;;;;;;27.84;50.53;98290.63;9995540;23;20027;-77
2022/08/15 12:22:46;;;;;;;1999.90;999.90;;;;;;;27.86;51.10;98296.66;10000426;23;20033;-76
2022/08/15 12:27:01;;;;;;;1999.90;999.90;;;;;;;27.61;51.58;98301.53;10039708;23;20018;-77
2022/08/15 12:31:30;;;;;;;1999.90;999.90;;;;;;;27.36;51.90;98291.44;9996701;23;20075;-77
2022/08/15 12:35:32;;;;;;;1999.90;999.90;;;;;;;27.47;51.97;98293.13;10025751;23;20030;-77
2022/08/15 12:39:59;;;;;;;1999.90;999.90;;;;;;;27.22;50.17;98302.50;10000182;23;20509;-77
2022/08/15 12:44:06;;;;;;;1999.90;999.90;;;;;;;27.07;51.89;98302.06;10028770;23;20023;-77
2022/08/15 12:48:21;;;;;;;1999.90;999.90;;;;;;;26.97;51.47;98295.84;9999568;23;20030;-77
2022/08/15 12:52:28;;;;;;;1999.90;999.90;;;;;;;27.11;49.33;98303.50;10029012;23;20066;-78
2022/08/15 12:56:30;;;;;;;1999.90;999.90;;;;;;;27.06;47.11;98303.03;10028049;23;20034;-77
2022/08/15 13:00:49;;;;;;;1999.90;999.90;;;;;;;27.50;45.04;98298.19;9999888;23;20030;-77
2022/08/15 13:05:20;;;;;;;1999.90;999.90;;;;;;;27.51;44.11;98295.38;10027513;23;20027;-77
2022/08/15 13:09:25;;;;;;;1999.90;999.90;;;;;;;27.47;42.21;98303.78;10028819;23;20387;-77
2022/08/15 13:13:29;;;;;;;1999.90;999.90;;;;;;;27.09;40.27;98310.75;10028238;23;20026;-77
2022/08/15 13:17:32;;;;;;;1999.90;999.90;;;;;;;26.74;41.73;98309.38;10007401;23;20129;-77
2022/08/15 13:26:29;;;;;;;1999.90;999.90;;;;;;;26.85;45.10;98300.44;10028549;23;20172;-77
2022/08/15 13:30:36;;;;;;;1999.90;999.90;;;;;;;26.83;44.96;98305.06;10001054;23;20034;-77
2022/08/15 13:34:42;;;;;;;1999.90;999.90;;;;;;;27.15;43.29;98306.72;10045404;23;20034;-78
2022/08/15 13:38:55;;;;;;;1999.90;999.90;;;;;;;27.44;39.46;98301.41;10031126;23;20047;-76
2022/08/15 13:42:59;;;;;;;1999.90;999.90;;;;;;;27.62;39.41;98294.38;10030214;23;20652;-77
2022/08/15 13:47:17;;;;;;;1999.90;999.90;;;;;;;27.52;39.23;98289.06;10002996;23;20061;-77
2022/08/15 13:51:30;;;;;;;1999.90;999.90;;;;;;;27.59;39.24;98284.00;10020367;23;20015;-77
2022/08/15 13:55:52;;;;;;;1999.90;999.90;;;;;;;27.02;39.54;98282.97;10028880;23;20090;-77
2022/08/15 13:59:54;;;;;;;1999.90;999.90;;;;;;;27.29;40.26;98282.31;10029574;23;20073;-77
2022/08/15 14:04:11;;;;;;;1999.90;999.90;;;;;;;27.49;37.49;98276.03;10028456;23;20472;-77
2022/08/15 14:08:14;;;;;;;1999.90;999.90;;;;;;;27.58;34.36;98266.31;10003963;23;20019;-77
2022/08/15 14:12:35;;;;;;;1999.90;999.90;;;;;;;27.77;36.28;98266.34;10004420;23;20027;-77
2022/08/15 14:16:41;;;;;;;;;;;;;;;27.86;35.28;98275.31;9999918;23;20346;-77
2022/08/15 14:21:04;;;;;;;1999.90;999.90;;;;;;;27.82;33.99;98274.75;10003743;23;19921;-77
2022/08/15 14:25:12;;;;;;;1999.90;999.90;;;;;;;27.83;33.94;98275.59;10004203;23;20023;-77
2022/08/15 14:29:39;;;;;;;1999.90;999.90;;;;;;;28.05;34.69;98277.13;10007249;23;20094;-77
2022/08/15 14:33:49;;;;;;;1999.90;999.90;;;;;;;28.14;34.54;98279.75;9998451;23;20063;-76
2022/08/15 14:38:11;;;;;;;1999.90;999.90;;;;;;;28.19;35.71;98271.31;10025246;23;20110;-75
2022/08/15 14:42:14;;;;;;;1999.90;999.90;;;;;;;28.20;35.68;98286.34;10021415;23;20454;-75
2022/08/15 14:46:22;;;;;;;1999.90;999.90;;;;;;;27.97;35.43;98275.16;10008215;23;20090;-75
2022/08/15 14:50:38;;;;;;;1999.90;999.90;;;;;;;27.87;35.96;98274.34;10025595;23;20394;-75
2022/08/15 14:54:59;;;;;;;1999.90;999.90;;;;;;;27.59;37.26;98274.19;9996868;23;20133;-75
2022/08/15 14:59:04;;;;;;;1999.90;999.90;;;;;;;27.51;37.55;98267.88;10023792;23;20049;-75
2022/08/15 15:03:06;;;;;;;1999.90;999.90;;;;;;;27.21;38.02;98267.03;9971653;23;20632;-75
2022/08/15 15:07:09;;;;;;;1999.90;999.90;;;;;;;26.85;38.71;98265.81;10024227;23;20022;-75
2022/08/15 15:11:27;;;;;;;1999.90;999.90;;;;;;;27.14;39.37;98265.06;10021755;23;20636;-75
2022/08/15 15:15:30;;;;;;;1999.90;999.90;;;;;;;27.58;38.27;98263.66;9995373;23;20382;-76
2022/08/15 15:19:43;;;;;;;1999.90;999.90;;;;;;;27.63;35.42;98245.41;10025945;23;20105;-75
2022/08/15 15:23:46;;;;;;;1999.90;999.90;;;;;;;27.71;35.88;98255.41;10025819;23;20574;-75
2022/08/15 15:27:53;;;;;;;1999.90;999.90;;;;;;;27.74;36.43;98253.28;10023880;23;20019;-75
2022/08/15 15:32:02;;;;;;;1999.90;999.90;;;;;;;27.69;36.25;98250.22;10020867;23;20434;-75
2022/08/15 15:36:31;;;;;;;1999.90;999.90;;;;;;;27.84;36.72;98259.47;10024757;23;20026;-77
2022/08/15 15:40:33;;;;;;;1999.90;999.90;;;;;;;27.99;36.39;98255.31;10003727;23;20018;-76
2022/08/15 15:44:36;;;;;;;1999.90;999.90;;;;;;;27.53;36.68;98247.25;10026554;23;20030;-77
2022/08/15 15:48:46;;;;;;;1999.90;999.90;;;;;;;27.27;37.13;98250.47;10026908;23;20794;-76
2022/08/15 15:53:19;;;;;;;1999.90;999.90;;;;;;;27.19;38.09;98262.81;10027776;23;20451;-77
2022/08/15 15:57:22;;;;;;;1999.90;999.90;;;;;;;27.02;38.88;98259.84;10000454;23;20489;-77
2022/08/15 16:01:26;;;;;;;1999.90;999.90;;;;;;;27.08;39.08;98269.09;10031917;23;20117;-76
2022/08/15 16:05:53;;;;;;;1999.90;999.90;;;;;;;27.19;39.54;98271.66;10024637;23;20421;-77
2022/08/15 16:10:22;;;;;;;1999.90;999.90;;;;;;;26.88;38.56;98267.34;9999368;23;20114;-77
2022/08/15 16:14:30;;;;;;;1999.90;999.90;;;;;;;26.90;39.15;98263.56;10000830;23;20023;-76
2022/08/15 16:18:44;;;;;;;1999.90;999.90;;;;;;;26.92;38.73;98266.94;10020972;23;20034;-77
2022/08/15 16:22:56;;;;;;;1999.90;999.90;;;;;;;26.41;39.45;98264.41;10003459;23;20023;-76
2022/08/15 16:27:11;;;;;;;1999.90;999.90;;;;;;;25.95;40.45;98267.50;10042672;23;20027;-77
2022/08/15 16:31:28;;;;;;;1999.90;999.90;;;;;;;25.48;42.58;98266.97;10022876;23;20338;-76
2022/08/15 16:35:41;;;;;;;1999.90;999.90;;;;;;;24.98;45.48;98283.44;10026786;23;20023;-77
2022/08/15 16:39:57;;;;;;;1999.90;999.90;;;;;;;24.82;47.97;98284.81;10018669;23;20086;-76
2022/08/15 16:44:27;;;;;;;1999.90;999.90;;;;;;;24.66;49.02;98295.81;10002228;23;20027;-76
2022/08/15 16:48:41;;;;;;;1999.90;999.90;;;;;;;24.27;50.62;98295.28;9998356;23;20030;-76
2022/08/15 16:53:34;;;;;;;1999.90;999.90;;;;;;;24.06;51.35;98289.84;10027677;23;20023;-76
2022/08/15 16:58:17;;;;;;;1999.90;999.90;;;;;;;23.90;51.82;98291.97;10005553;23;20097;-75
2022/08/15 17:02:41;;;;;;;1999.90;999.90;;;;;;;23.71;52.15;98289.03;10029989;23;20806;-75
2022/08/15 17:07:14;;;;;;;1999.90;999.90;;;;;;;23.38;53.14;98284.44;10026232;23;20023;-75
2022/08/15 17:11:27;;;;;;;1999.90;999.90;;;;;;;23.40;53.48;98290.44;10000172;23;20069;-75
2022/08/15 17:15:54;;;;;;;1999.90;999.90;;;;;;;23.30;54.08;98302.66;10020711;23;20469;-75
2022/08/15 17:20:00;;;;;;;1999.90;999.90;;;;;;;23.25;54.63;98299.53;10024429;23;20747;-75
2022/08/15 17:24:30;;;;;;;1999.90;999.90;;;;;;;23.10;54.72;98306.78;10025813;23;20391;-75
2022/08/15 17:29:17;;;;;;;1999.90;999.90;;;;;;;22.91;55.03;98310.75;10004589;23;20027;-74
2022/08/15 17:33:36;;;;;;;1999.90;999.90;;;;;;;22.87;55.48;98311.09;9995454;23;20089;-74
2022/08/15 17:37:47;;;;;;;1999.90;999.90;;;;;;;22.83;55.97;98313.13;10024706;23;20155;-76
2022/08/15 17:41:50;;;;;;;1999.90;999.90;;;;;;;22.76;56.15;98316.28;9999121;23;20050;-76
2022/08/15 17:46:00;;;;;;;1999.90;999.90;;;;;;;22.66;56.69;98317.91;10021282;23;20536;-77
2022/08/15 17:50:29;;;;;;;1999.90;999.90;;;;;;;22.55;57.06;98322.13;10000012;23;20034;-76
2022/08/15 17:55:13;;;;;;;1999.90;999.90;;;;;;;22.43;57.39;98330.06;10024575;23;20359;-76
2022/08/15 17:59:22;;;;;;;1999.90;999.90;;;;;;;22.41;57.46;98331.97;10000022;23;20026;-76
2022/08/15 18:03:23;;;;;;;1999.90;999.90;;;;;;;22.37;57.60;98354.31;10019132;23;20022;-76
2022/08/15 18:07:28;;;;;;;1999.90;999.90;;;;;;;22.33;57.85;98352.84;10025392;23;20412;-77
2022/08/15 18:11:37;;;;;;;1999.90;999.90;;;;;;;22.26;58.17;98358.56;9976863;23;20019;-77
2022/08/15 18:16:03;;;;;;;1999.90;999.90;;;;;;;22.15;58.70;98355.78;10022642;23;20334;-77
2022/08/15 18:20:20;;;;;;;1999.90;999.90;;;;;;;22.10;59.13;98360.56;10015900;23;20042;-77
2022/08/15 18:24:34;;;;;;;1999.90;999.90;;;;;;;21.99;59.88;98368.31;9977628;23;20026;-77
2022/08/15 18:29:03;;;;;;;1999.90;999.90;;;;;;;21.92;60.68;98373.19;9979412;23;20588;-77
2022/08/15 18:33:28;;;;;;;1999.90;999.90;;;;;;;21.74;62.41;98378.84;9994623;23;20062;-76
2022/08/15 18:38:23;;;;;;;1999.90;999.90;;;;;;;21.62;63.08;98386.63;10042126;23;20054;-76
2022/08/15 18:42:45;;;;;;;1999.90;999.90;;;;;;;21.50;63.36;98381.28;10014100;23;20019;-77
2022/08/15 18:47:00;;;;;;;1999.90;999.90;;;;;;;21.40;63.36;98386.31;9995537;23;20529;-76
2022/08/15 18:51:05;;;;;;;1999.90;999.90;;;;;;;21.33;63.44;98385.84;10025210;23;20019;-76
2022/08/15 18:55:20;;;;;;;1999.90;999.90;;;;;;;21.29;64.11;98396.72;10026446;23;20027;-76